createdAt,value
2018-07-27T00:01:41.619Z,100046.14
2018-07-27T00:04:11.928Z,100042.25
2018-07-27T00:06:41.653Z,100049.80
2018-07-27T00:09:13.147Z,100049.42
2018-07-27T00:11:43.650Z,100041.17
2018-07-27T00:14:13.425Z,100037.63
2018-07-27T00:16:44.253Z,100040.47
2018-07-27T00:19:14.265Z,100041.45
2018-07-27T00:21:43.978Z,100045.77
2018-07-27T00:24:13.680Z,100041.52
2018-07-27T00:26:43.441Z,100045.27
2018-07-27T00:29:13.160Z,100044.20
2018-07-27T00:31:42.864Z,100045.77
2018-07-27T00:34:12.568Z,100040.95
2018-07-27T00:36:42.283Z,100039.89
2018-07-27T00:39:12.741Z,100042.83
2018-07-27T00:41:42.420Z,100035.88
2018-07-27T00:44:12.132Z,100033.87
2018-07-27T00:46:41.821Z,100034.80
2018-07-27T00:49:11.576Z,100038.59
2018-07-27T00:51:41.324Z,100033.75
2018-07-27T00:54:11.012Z,100033.66
2018-07-27T00:56:40.700Z,100033.05
2018-07-27T00:59:10.443Z,100037.67
2018-07-27T01:01:40.139Z,100033.42
2018-07-27T01:04:12.620Z,100037.65
2018-07-27T01:06:42.767Z,100037.78
2018-07-27T01:09:12.720Z,100035.93
2018-07-27T01:11:42.437Z,100032.22
2018-07-27T01:14:12.178Z,100039.95
2018-07-27T01:16:41.897Z,100033.88
2018-07-27T01:19:12.936Z,100031.88
2018-07-27T01:21:42.654Z,100031.88
2018-07-27T01:24:12.809Z,100025.47
2018-07-27T01:26:45.569Z,100031.63
2018-07-27T01:29:17.491Z,100025.77
2018-07-27T01:31:47.205Z,100031.23
2018-07-27T01:34:17.000Z,100026.02
2018-07-27T01:36:46.691Z,100029.19
2018-07-27T01:39:16.449Z,100026.31
2018-07-27T01:41:46.152Z,100024.16
2018-07-27T01:44:15.844Z,100015.45
2018-07-27T01:46:45.566Z,100018.83
2018-07-27T01:49:15.219Z,100017.95
2018-07-27T01:51:44.922Z,100025.28
2018-07-27T01:54:14.719Z,100015.60
2018-07-27T01:56:44.421Z,100016.61
2018-07-27T01:59:14.197Z,100012.41
2018-07-27T02:01:43.925Z,100009.24
2018-07-27T02:04:13.696Z,100013.03
2018-07-27T02:06:44.250Z,100005.64
2018-07-27T02:09:13.956Z,100002.31
2018-07-27T02:11:43.696Z,100006.46
2018-07-27T02:14:13.434Z,100006.59
2018-07-27T02:16:43.313Z,100006.05
2018-07-27T02:19:13.038Z,100000.54
2018-07-27T02:21:43.114Z,100002.64
2018-07-27T02:24:12.816Z,100002.58
2018-07-27T02:26:42.476Z,99993.22
2018-07-27T02:29:12.971Z,99992.17
2018-07-27T02:31:42.659Z,99993.12
2018-07-27T02:34:12.576Z,99989.84
2018-07-27T02:36:42.244Z,99991.45
2018-07-27T02:39:15.478Z,99979.86
2018-07-27T02:41:45.498Z,99991.16
2018-07-27T02:44:15.243Z,99989.27
2018-07-27T02:46:44.940Z,99991.65
2018-07-27T02:49:14.624Z,99992.86
2018-07-27T02:51:44.356Z,99986.61
2018-07-27T02:54:14.064Z,99988.22
2018-07-27T02:56:43.733Z,99991.06
2018-07-27T02:59:13.474Z,99982.35
2018-07-27T03:01:43.203Z,99977.69
2018-07-27T03:04:13.840Z,99974.74
2018-07-27T03:06:43.519Z,99972.15
2018-07-27T03:09:13.238Z,99971.00
2018-07-27T03:11:42.946Z,99968.80
2018-07-27T03:14:12.611Z,99971.63
2018-07-27T03:16:42.563Z,99969.53
2018-07-27T03:19:12.230Z,99977.28
2018-07-27T03:21:41.897Z,99975.12
2018-07-27T03:24:12.141Z,99975.87
2018-07-27T03:26:42.194Z,99975.39
2018-07-27T03:29:11.846Z,99976.42
2018-07-27T03:31:41.570Z,99976.18
2018-07-27T03:34:11.286Z,99973.48
2018-07-27T03:36:40.975Z,99972.22
2018-07-27T03:39:11.871Z,99973.02
2018-07-27T03:41:41.559Z,99975.68
2018-07-27T03:44:12.180Z,99971.59
2018-07-27T03:46:41.908Z,99973.84
2018-07-27T03:49:11.607Z,99973.42
2018-07-27T03:51:41.359Z,99972.26
2018-07-27T03:54:11.036Z,99968.72
2018-07-27T03:56:40.752Z,99979.25
2018-07-27T03:59:10.513Z,99970.83
2018-07-27T04:01:40.233Z,99975.29
2018-07-27T04:04:09.892Z,99970.43
2018-07-27T04:06:39.620Z,99976.41
2018-07-27T04:09:10.134Z,99975.84
2018-07-27T04:11:40.504Z,99973.39
2018-07-27T04:14:10.592Z,99979.69
2018-07-27T04:16:40.283Z,99974.85
2018-07-27T04:19:09.968Z,99973.55
2018-07-27T04:21:39.704Z,99977.70
2018-07-27T04:24:10.871Z,99981.37
2018-07-27T04:26:40.517Z,99988.82
2018-07-27T04:29:10.252Z,99991.45
2018-07-27T04:31:40.007Z,99995.14
2018-07-27T04:34:11.156Z,99990.42
2018-07-27T04:36:41.181Z,99989.77
2018-07-27T04:39:11.663Z,99987.97
2018-07-27T04:41:41.388Z,99993.28
2018-07-27T04:44:11.104Z,99996.06
2018-07-27T04:46:40.852Z,99996.64
2018-07-27T04:49:10.544Z,99994.02
2018-07-27T04:51:40.312Z,99999.53
2018-07-27T04:54:10.056Z,100000.70
2018-07-27T04:56:40.063Z,99989.88
2018-07-27T04:59:09.749Z,99983.27
2018-07-27T05:01:39.497Z,99987.42
2018-07-27T05:04:09.241Z,99983.89
2018-07-27T05:06:38.967Z,99988.72
2018-07-27T05:09:14.145Z,99991.12
2018-07-27T05:11:43.968Z,99993.24
2018-07-27T05:14:13.613Z,99996.91
2018-07-27T05:16:43.321Z,99990.88
2018-07-27T05:19:12.972Z,99993.34
2018-07-27T05:21:42.752Z,99989.12
2018-07-27T05:24:13.788Z,99987.69
2018-07-27T05:26:43.457Z,99987.74
2018-07-27T05:29:13.167Z,99993.15
2018-07-27T05:31:42.951Z,99995.19
2018-07-27T05:34:12.639Z,99994.41
2018-07-27T05:36:42.323Z,99998.82
2018-07-27T05:39:12.864Z,99993.37
2018-07-27T05:41:42.621Z,99990.41
2018-07-27T05:44:12.379Z,99984.23
2018-07-27T05:46:42.182Z,99987.58
2018-07-27T05:49:12.292Z,99986.80
2018-07-27T05:51:42.446Z,99991.07
2018-07-27T05:54:12.149Z,99989.45
2018-07-27T05:56:41.840Z,99994.27
2018-07-27T05:59:12.684Z,99985.30
2018-07-27T06:01:42.440Z,99989.27
2018-07-27T06:04:12.226Z,99984.14
2018-07-27T06:06:41.960Z,99987.25
2018-07-27T06:09:12.240Z,99989.42
2018-07-27T06:11:41.889Z,99987.88
2018-07-27T06:14:11.564Z,99991.73
2018-07-27T06:16:41.319Z,99991.06
2018-07-27T06:19:11.067Z,99991.80
2018-07-27T06:21:40.760Z,99991.79
2018-07-27T06:24:10.446Z,99991.92
2018-07-27T06:26:40.136Z,99996.31
2018-07-27T06:29:09.860Z,99993.96
2018-07-27T06:31:39.593Z,99995.63
2018-07-27T06:34:09.277Z,99998.01
2018-07-27T06:36:38.944Z,99993.95
2018-07-27T06:39:10.077Z,99992.47
2018-07-27T06:41:40.253Z,99987.14
2018-07-27T06:44:09.911Z,99992.48
2018-07-27T06:46:40.963Z,99989.00
2018-07-27T06:49:10.629Z,99989.05
2018-07-27T06:51:40.324Z,99992.72
2018-07-27T06:54:10.051Z,99988.62
2018-07-27T06:56:39.705Z,99990.67
2018-07-27T06:59:09.355Z,99989.04
2018-07-27T07:01:39.088Z,99983.66
2018-07-27T07:04:08.749Z,99985.58
2018-07-27T07:06:38.448Z,99986.70
2018-07-27T07:09:09.863Z,99990.89
2018-07-27T07:11:39.623Z,99988.23
2018-07-27T07:14:11.005Z,99985.77
2018-07-27T07:16:40.729Z,99990.20
2018-07-27T07:19:10.796Z,99982.52
2018-07-27T07:21:40.484Z,99984.16
2018-07-27T07:24:10.215Z,99979.51
2018-07-27T07:26:39.876Z,99980.36
2018-07-27T07:29:09.538Z,99976.23
2018-07-27T07:31:39.303Z,99973.52
2018-07-27T07:34:08.985Z,99972.70
2018-07-27T07:36:39.093Z,99976.55
2018-07-27T07:39:10.837Z,99972.69
2018-07-27T07:41:40.880Z,99962.52
2018-07-27T07:44:10.618Z,99955.87
2018-07-27T07:46:40.953Z,99966.89
2018-07-27T07:49:10.639Z,99965.17
2018-07-27T07:51:40.361Z,99957.42
2018-07-27T07:54:10.032Z,99961.25
2018-07-27T07:56:39.678Z,99951.60
2018-07-27T07:59:09.834Z,99948.83
2018-07-27T08:01:39.520Z,99942.70
2018-07-27T08:04:09.263Z,99954.50
2018-07-27T08:06:38.957Z,99944.86
2018-07-27T08:09:09.769Z,99946.23
2018-07-27T08:11:39.749Z,99950.84
2018-07-27T08:14:09.496Z,99949.67
2018-07-27T08:16:39.188Z,99945.15
2018-07-27T08:19:08.890Z,99944.02
2018-07-27T08:21:38.609Z,99936.27
2018-07-27T08:24:08.365Z,99938.16
2018-07-27T08:26:52.132Z,99941.05
2018-07-27T08:29:25.040Z,99936.67
2018-07-27T08:31:55.412Z,99935.99
2018-07-27T08:34:25.110Z,99918.77
2018-07-27T08:36:54.841Z,99922.25
2018-07-27T08:39:25.806Z,99928.20
2018-07-27T08:41:55.636Z,99920.76
2018-07-27T08:44:26.537Z,99924.77
2018-07-27T08:46:56.223Z,99922.81
2018-07-27T08:49:26.336Z,99919.99
2018-07-27T08:51:56.478Z,99914.34
2018-07-27T08:54:26.211Z,99910.95
2018-07-27T08:56:56.218Z,99915.00
2018-07-27T08:59:25.914Z,99906.11
2018-07-27T09:01:56.752Z,99907.25
2018-07-27T09:04:26.463Z,99904.09
2018-07-27T09:06:56.480Z,99901.16
2018-07-27T09:09:26.179Z,99903.16
2018-07-27T09:11:55.857Z,99890.89
2018-07-27T09:14:25.737Z,99900.22
2018-07-27T09:16:55.393Z,99894.30
2018-07-27T09:19:25.160Z,99892.88
2018-07-27T09:21:54.863Z,99892.80
2018-07-27T09:24:24.557Z,99888.95
2018-07-27T09:26:54.568Z,99890.20
2018-07-27T09:29:24.276Z,99882.69
2018-07-27T09:31:53.976Z,99881.30
2018-07-27T09:34:23.717Z,99877.97
2018-07-27T09:36:53.432Z,99880.47
2018-07-27T09:39:23.179Z,99876.82
2018-07-27T09:41:52.910Z,99877.24
2018-07-27T09:44:22.580Z,99878.63
2018-07-27T09:46:52.497Z,99872.95
2018-07-27T09:49:22.176Z,99875.36
2018-07-27T09:51:51.865Z,99871.60
2018-07-27T09:54:21.566Z,99875.86
2018-07-27T09:56:51.216Z,99869.81
2018-07-27T09:59:20.889Z,99878.88
2018-07-27T10:01:50.598Z,99870.63
2018-07-27T10:04:20.260Z,99865.44
2018-07-27T10:06:49.960Z,99863.26
2018-07-27T10:09:19.984Z,99857.76
2018-07-27T10:11:49.971Z,99853.23
2018-07-27T10:14:19.704Z,99854.06
2018-07-27T10:16:49.379Z,99856.44
2018-07-27T10:19:19.091Z,99856.76
2018-07-27T10:21:49.080Z,99845.80
2018-07-27T10:24:18.761Z,99843.90
2018-07-27T10:26:48.484Z,99845.28
2018-07-27T10:29:18.648Z,99847.83
2018-07-27T10:31:48.425Z,99845.34
2018-07-27T10:34:18.127Z,99834.58
2018-07-27T10:36:47.856Z,99833.25
2018-07-27T10:39:17.625Z,99832.55
2018-07-27T10:41:47.320Z,99828.90
2018-07-27T10:44:17.015Z,99823.27
2018-07-27T10:46:46.757Z,99815.34
2018-07-27T10:49:16.516Z,99811.37
2018-07-27T10:51:46.263Z,99813.34
2018-07-27T10:54:15.937Z,99810.64
2018-07-27T10:56:45.621Z,99812.17
2018-07-27T10:59:15.326Z,99800.91
2018-07-27T11:01:45.029Z,99811.14
2018-07-27T11:04:14.733Z,99812.47
2018-07-27T11:06:45.459Z,99801.36
2018-07-27T11:09:15.168Z,99802.05
2018-07-27T11:11:44.836Z,99790.20
2018-07-27T11:14:14.534Z,99789.64
2018-07-27T11:16:44.212Z,99778.72
2018-07-27T11:19:13.928Z,99781.39
2018-07-27T11:21:44.144Z,99782.55
2018-07-27T11:24:13.832Z,99777.84
2018-07-27T11:26:43.531Z,99779.37
2018-07-27T11:29:13.253Z,99782.65
2018-07-27T11:31:43.112Z,99779.22
2018-07-27T11:34:12.811Z,99774.63
2018-07-27T11:36:42.569Z,99769.91
2018-07-27T11:39:12.990Z,99771.30
2018-07-27T11:41:42.723Z,99770.38
2018-07-27T11:44:12.438Z,99757.14
2018-07-27T11:46:42.935Z,99763.16
2018-07-27T11:49:12.694Z,99758.20
2018-07-27T11:51:42.755Z,99751.14
2018-07-27T11:54:12.456Z,99745.76
2018-07-27T11:56:42.613Z,99753.35
2018-07-27T11:59:12.292Z,99750.57
2018-07-27T12:01:42.033Z,99755.59
2018-07-27T12:04:11.719Z,99751.28
2018-07-27T12:06:41.407Z,99744.67
2018-07-27T12:09:12.143Z,99737.76
2018-07-27T12:11:42.405Z,99735.89
2018-07-27T12:14:12.299Z,99730.32
2018-07-27T12:16:41.823Z,99741.50
2018-07-27T12:19:11.537Z,99738.20
2018-07-27T12:21:42.212Z,99731.06
2018-07-27T12:24:11.811Z,99736.69
2018-07-27T12:26:41.828Z,99728.09
2018-07-27T12:29:11.560Z,99731.23
2018-07-27T12:31:41.251Z,99717.62
2018-07-27T12:34:10.914Z,99721.65
2018-07-27T12:36:40.996Z,99716.88
2018-07-27T12:39:12.117Z,99716.08
2018-07-27T12:41:42.509Z,99711.34
2018-07-27T12:44:12.484Z,99713.11
2018-07-27T12:46:42.222Z,99702.89
2018-07-27T12:49:11.905Z,99708.73
2018-07-27T12:51:41.583Z,99701.59
2018-07-27T12:54:11.457Z,99697.83
2018-07-27T12:56:41.131Z,99708.03
2018-07-27T12:59:10.840Z,99704.59
2018-07-27T13:01:40.544Z,99706.92
2018-07-27T13:04:10.244Z,99706.14
2018-07-27T13:06:39.940Z,99695.17
2018-07-27T13:09:11.294Z,99693.53
2018-07-27T13:11:41.284Z,99676.19
2018-07-27T13:14:11.009Z,99679.06
2018-07-27T13:16:41.171Z,99680.44
2018-07-27T13:19:13.925Z,99679.75
2018-07-27T13:21:44.191Z,99673.54
2018-07-27T13:24:14.135Z,99677.47
2018-07-27T13:26:43.917Z,99664.52
2018-07-27T13:29:13.672Z,99657.41
2018-07-27T13:31:54.014Z,99655.77
2018-07-27T13:34:32.582Z,99654.34
2018-07-27T13:37:02.673Z,99643.36
2018-07-27T13:39:33.139Z,99643.53
2018-07-27T13:42:04.142Z,99644.01
2018-07-27T13:44:35.004Z,99634.31
2018-07-27T13:47:05.508Z,99631.69
2018-07-27T13:49:35.244Z,99626.69
2018-07-27T13:52:05.018Z,99623.16
2018-07-27T13:54:35.521Z,99622.27
2018-07-27T13:57:05.369Z,99618.91
2018-07-27T13:59:35.369Z,99608.27
2018-07-27T14:02:05.363Z,99606.85
2018-07-27T14:04:35.301Z,99603.88
2018-07-27T14:07:06.112Z,99600.77
2018-07-27T14:09:35.842Z,99598.76
2018-07-27T14:12:05.635Z,99603.55
2018-07-27T14:14:35.343Z,99601.45
2018-07-27T14:17:05.109Z,99602.30
2018-07-27T14:19:34.784Z,99595.38
2018-07-27T14:22:04.637Z,99585.94
2018-07-27T14:24:34.372Z,99589.94
2018-07-27T14:27:04.112Z,99581.58
2018-07-27T14:29:33.781Z,99582.39
2018-07-27T14:32:03.495Z,99579.95
2018-07-27T14:34:33.218Z,99576.70
2018-07-27T14:37:02.906Z,99567.30
2018-07-27T14:39:32.588Z,99570.17
2018-07-27T14:42:02.299Z,99578.62
2018-07-27T14:44:32.095Z,99577.39
2018-07-27T14:47:01.768Z,99573.97
2018-07-27T14:49:32.784Z,99567.41
2018-07-27T14:52:02.484Z,99566.80
2018-07-27T14:54:32.226Z,99562.88
2018-07-27T14:57:02.063Z,99564.29
2018-07-27T14:59:31.784Z,99565.70
2018-07-27T15:02:02.098Z,99564.41
2018-07-27T15:04:32.468Z,99555.86
2018-07-27T15:07:02.225Z,99550.86
2018-07-27T15:09:31.911Z,99551.45
2018-07-27T15:12:01.616Z,99543.05
2018-07-27T15:14:31.355Z,99546.97
2018-07-27T15:17:01.024Z,99547.39
2018-07-27T15:19:30.756Z,99548.08
2018-07-27T15:22:01.127Z,99545.38
2018-07-27T15:24:30.848Z,99534.86
2018-07-27T15:27:00.875Z,99539.50
2018-07-27T15:29:30.569Z,99536.33
2018-07-27T15:32:00.271Z,99531.16
2018-07-27T15:34:29.955Z,99537.89
2018-07-27T15:36:59.680Z,99532.92
2018-07-27T15:39:29.392Z,99532.34
2018-07-27T15:41:59.139Z,99525.69
2018-07-27T15:44:30.079Z,99528.97
2018-07-27T15:47:00.707Z,99526.53
2018-07-27T15:49:30.424Z,99530.45
2018-07-27T15:52:00.153Z,99522.84
2018-07-27T15:54:29.858Z,99526.70
2018-07-27T15:56:59.613Z,99524.50
2018-07-27T15:59:29.733Z,99515.09
2018-07-27T16:01:59.404Z,99515.67
2018-07-27T16:04:29.119Z,99519.75
2018-07-27T16:06:58.803Z,99514.39
2018-07-27T16:09:28.503Z,99522.94
2018-07-27T16:11:58.272Z,99517.46
2018-07-27T16:14:27.981Z,99515.86
2018-07-27T16:16:58.095Z,99519.75
2018-07-27T16:19:29.124Z,99517.27
2018-07-27T16:21:59.404Z,99517.92
2018-07-27T16:24:29.508Z,99506.32
2018-07-27T16:26:59.759Z,99512.86
2018-07-27T16:29:29.460Z,99514.50
2018-07-27T16:31:59.203Z,99517.02
2018-07-27T16:34:28.924Z,99503.25
2018-07-27T16:36:58.644Z,99504.78
2018-07-27T16:39:29.926Z,99508.72
2018-07-27T16:41:59.994Z,99500.95
2018-07-27T16:44:29.766Z,99500.87
2018-07-27T16:46:59.490Z,99504.20
2018-07-27T16:49:29.251Z,99512.13
2018-07-27T16:51:58.965Z,99508.34
2018-07-27T16:54:28.655Z,99506.93
2018-07-27T16:56:58.393Z,99507.01
2018-07-27T16:59:28.064Z,99514.30
2018-07-27T17:01:57.820Z,99507.95
2018-07-27T17:04:27.544Z,99514.82
2018-07-27T17:06:57.224Z,99514.75
2018-07-27T17:09:26.943Z,99510.79
2018-07-27T17:11:57.055Z,99508.31
2018-07-27T17:14:26.764Z,99505.70
2018-07-27T17:16:56.472Z,99511.35
2018-07-27T17:19:26.239Z,99518.98
2018-07-27T17:21:55.983Z,99525.64
2018-07-27T17:24:26.382Z,99524.34
2018-07-27T17:26:56.440Z,99526.77
2018-07-27T17:29:27.328Z,99522.66
2018-07-27T17:31:57.738Z,99528.00
2018-07-27T17:34:27.469Z,99530.94
2018-07-27T17:36:57.173Z,99530.13
2018-07-27T17:39:26.883Z,99535.20
2018-07-27T17:41:57.448Z,99534.77
2018-07-27T17:44:27.155Z,99530.67
2018-07-27T17:46:56.886Z,99531.73
2018-07-27T17:49:26.602Z,99533.44
2018-07-27T17:51:56.315Z,99532.16
2018-07-27T17:54:26.435Z,99535.31
2018-07-27T17:56:56.838Z,99532.26
2018-07-27T17:59:27.395Z,99540.41
2018-07-27T18:01:57.145Z,99534.67
2018-07-27T18:04:27.340Z,99533.61
2018-07-27T18:06:57.479Z,99533.77
2018-07-27T18:09:27.204Z,99538.25
2018-07-27T18:11:57.295Z,99538.36
2018-07-27T18:14:27.025Z,99539.95
2018-07-27T18:16:56.847Z,99539.08
2018-07-27T18:19:26.645Z,99536.78
2018-07-27T18:21:56.420Z,99538.63
2018-07-27T18:24:26.345Z,99533.98
2018-07-27T18:26:56.352Z,99534.08
2018-07-27T18:29:26.501Z,99533.81
2018-07-27T18:31:56.904Z,99532.19
2018-07-27T18:34:26.757Z,99537.77
2018-07-27T18:36:56.482Z,99537.53
2018-07-27T18:39:26.171Z,99536.42
2018-07-27T18:41:56.354Z,99538.13
2018-07-27T18:44:26.075Z,99536.29
2018-07-27T18:46:55.777Z,99537.23
2018-07-27T18:49:25.500Z,99539.58
2018-07-27T18:51:55.266Z,99537.89
2018-07-27T18:54:24.943Z,99536.25
2018-07-27T18:56:54.716Z,99542.13
2018-07-27T18:59:24.477Z,99536.69
2018-07-27T19:01:54.195Z,99532.33
2018-07-27T19:04:23.916Z,99531.11
2018-07-27T19:06:54.143Z,99526.70
2018-07-27T19:09:23.796Z,99521.05
2018-07-27T19:11:53.467Z,99520.25
2018-07-27T19:14:23.205Z,99520.06
2018-07-27T19:16:52.889Z,99515.47
2018-07-27T19:19:22.575Z,99512.83
2018-07-27T19:21:52.343Z,99514.59
2018-07-27T19:24:22.015Z,99506.40
2018-07-27T19:26:51.702Z,99506.59
2018-07-27T19:29:21.461Z,99504.75
2018-07-27T19:31:51.169Z,99507.34
2018-07-27T19:34:20.840Z,99502.75
2018-07-27T19:36:50.634Z,99502.05
2018-07-27T19:39:20.292Z,99498.98
2018-07-27T19:41:50.370Z,99501.78
2018-07-27T19:44:20.134Z,99507.96
2018-07-27T19:46:49.916Z,99506.11
2018-07-27T19:49:19.680Z,99500.66
2018-07-27T19:51:49.363Z,99509.83
2018-07-27T19:54:19.110Z,99514.33
2018-07-27T19:56:49.170Z,99504.83
2018-07-27T19:59:18.906Z,99509.83
2018-07-27T20:01:48.648Z,99503.09
2018-07-27T20:04:18.328Z,99507.56
2018-07-27T20:06:48.705Z,99499.44
2018-07-27T20:09:18.459Z,99497.60
2018-07-27T20:11:48.187Z,99499.38
2018-07-27T20:14:17.867Z,99503.58
2018-07-27T20:16:47.571Z,99501.69
2018-07-27T20:19:17.280Z,99494.92
2018-07-27T20:21:46.984Z,99502.11
2018-07-27T20:24:16.663Z,99500.48
2018-07-27T20:26:46.395Z,99503.31
2018-07-27T20:29:16.596Z,99505.61
2018-07-27T20:31:46.357Z,99507.30
2018-07-27T20:34:16.012Z,99503.22
2018-07-27T20:36:45.676Z,99501.05
2018-07-27T20:39:16.208Z,99499.21
2018-07-27T20:41:45.875Z,99503.63
2018-07-27T20:44:15.596Z,99499.81
2018-07-27T20:46:45.349Z,99509.96
2018-07-27T20:49:15.035Z,99511.34
2018-07-27T20:51:44.795Z,99508.90
2018-07-27T20:54:14.681Z,99506.14
2018-07-27T20:56:44.753Z,99503.70
2018-07-27T20:59:15.337Z,99503.19
2018-07-27T21:01:45.021Z,99501.27
2018-07-27T21:04:14.734Z,99505.10
2018-07-27T21:06:44.485Z,99497.72
2018-07-27T21:09:14.455Z,99495.53
2018-07-27T21:11:44.219Z,99498.54
2018-07-27T21:14:14.361Z,99494.42
2018-07-27T21:16:44.120Z,99494.16
2018-07-27T21:19:13.813Z,99483.72
2018-07-27T21:21:43.799Z,99482.63
2018-07-27T21:24:13.526Z,99484.32
2018-07-27T21:26:43.300Z,99476.67
2018-07-27T21:29:12.997Z,99480.52
2018-07-27T21:31:42.764Z,99484.91
2018-07-27T21:34:12.464Z,99488.49
2018-07-27T21:36:42.211Z,99488.49
2018-07-27T21:39:13.744Z,99485.23
2018-07-27T21:41:43.520Z,99487.69
2018-07-27T21:44:13.218Z,99488.78
2018-07-27T21:46:42.924Z,99495.65
2018-07-27T21:49:12.679Z,99486.88
2018-07-27T21:51:42.421Z,99494.03
2018-07-27T21:54:12.312Z,99495.66
2018-07-27T21:56:42.500Z,99499.55
2018-07-27T21:59:12.285Z,99492.95
2018-07-27T22:01:42.037Z,99497.34
2018-07-27T22:04:11.773Z,99496.25
2018-07-27T22:06:41.682Z,99501.19
2018-07-27T22:09:11.660Z,99495.42
2018-07-27T22:11:41.454Z,99501.74
2018-07-27T22:14:11.368Z,99500.09
2018-07-27T22:16:41.332Z,99497.34
2018-07-27T22:19:11.058Z,99494.89
2018-07-27T22:21:40.766Z,99497.34
2018-07-27T22:24:10.675Z,99497.89
2018-07-27T22:26:40.340Z,99497.03
2018-07-27T22:29:10.191Z,99497.35
2018-07-27T22:31:39.913Z,99498.73
2018-07-27T22:34:09.619Z,99498.44
2018-07-27T22:36:39.383Z,99502.55
2018-07-27T22:39:10.561Z,99493.77
2018-07-27T22:41:40.636Z,99488.56
2018-07-27T22:44:10.676Z,99487.16
2018-07-27T22:46:40.451Z,99483.03
2018-07-27T22:49:10.141Z,99480.29
2018-07-27T22:51:39.920Z,99478.92
2018-07-27T22:54:09.942Z,99478.91
2018-07-27T22:56:39.664Z,99476.73
2018-07-27T22:59:09.767Z,99476.19
2018-07-27T23:01:40.247Z,99474.23
2018-07-27T23:04:10.827Z,99470.13
2018-07-27T23:06:41.541Z,99470.39
2018-07-27T23:09:12.315Z,99470.66
2018-07-27T23:11:42.005Z,99468.72
2018-07-27T23:14:12.075Z,99465.98
2018-07-27T23:16:42.313Z,99461.31
2018-07-27T23:19:12.576Z,99461.05
2018-07-27T23:21:42.311Z,99460.77
2018-07-27T23:24:12.366Z,99461.59
2018-07-27T23:26:42.129Z,99463.25
2018-07-27T23:29:11.849Z,99460.75
2018-07-27T23:31:41.536Z,99460.94
2018-07-27T23:34:11.303Z,99455.97
2018-07-27T23:36:41.012Z,99460.86
2018-07-27T23:39:13.007Z,99455.36
2018-07-27T23:41:43.212Z,99457.00
2018-07-27T23:44:13.106Z,99464.62
2018-07-27T23:46:42.842Z,99461.63
2018-07-27T23:49:12.821Z,99458.64
2018-07-27T23:51:42.948Z,99461.36
2018-07-27T23:54:13.131Z,99459.72
2018-07-27T23:56:44.387Z,99457.77
2018-07-27T23:59:14.137Z,99450.06
